createdAt,value
2023-03-08T00:01:14.173Z,2.25
2023-03-08T00:06:15.884Z,2.30
2023-03-08T00:11:17.963Z,1.60
2023-03-08T00:16:19.382Z,2.10
2023-03-08T00:21:20.867Z,1.17
2023-03-08T00:26:22.733Z,1.48
2023-03-08T00:31:24.258Z,1.50
2023-03-08T00:36:28.229Z,1.42
2023-03-08T00:41:29.722Z,1.90
2023-03-08T00:46:31.852Z,1.92
2023-03-08T00:51:33.294Z,1.50
2023-03-08T00:56:34.729Z,1.75
2023-03-08T01:01:36.210Z,2.13
2023-03-08T01:06:37.678Z,1.70
2023-03-08T01:11:39.566Z,2.50
2023-03-08T01:16:41.288Z,1.70
2023-03-08T01:21:42.736Z,1.70
2023-03-08T01:26:44.163Z,1.80
2023-03-08T01:31:45.674Z,2.00
2023-03-08T01:36:47.106Z,1.58
2023-03-08T01:41:52.066Z,1.70
2023-03-08T01:46:53.576Z,1.60
2023-03-08T01:52:36.451Z,1.67
2023-03-08T01:57:53.345Z,1.85
2023-03-08T02:03:04.650Z,2.10
2023-03-08T02:08:06.346Z,1.80
2023-03-08T02:13:11.546Z,2.05
2023-03-08T02:18:16.563Z,2.40
2023-03-08T02:23:21.155Z,2.30
2023-03-08T02:28:25.122Z,2.08
2023-03-08T02:33:27.545Z,2.50
2023-03-08T02:38:32.019Z,2.05
2023-03-08T02:43:34.419Z,2.10
2023-03-08T02:48:36.236Z,2.20
2023-03-08T02:53:38.584Z,2.63
2023-03-08T02:58:40.124Z,1.85
2023-03-08T03:03:41.985Z,2.38
2023-03-08T03:08:43.448Z,2.80
2023-03-08T03:13:45.477Z,2.83
2023-03-08T03:18:48.466Z,3.92
2023-03-08T03:23:50.129Z,4.32
2023-03-08T03:28:59.333Z,4.63
2023-03-08T03:34:05.096Z,4.63
2023-03-08T03:39:07.234Z,4.65
2023-03-08T03:44:11.732Z,5.07
2023-03-08T03:54:18.781Z,5.32
2023-03-08T03:59:22.953Z,5.63
2023-03-08T04:04:25.125Z,5.38
2023-03-08T04:09:28.590Z,6.63
2023-03-08T04:14:46.602Z,5.10
2023-03-08T04:19:50.214Z,6.45
2023-03-08T04:24:52.847Z,6.25
2023-03-08T04:30:01.298Z,7.53
2023-03-08T04:35:05.704Z,6.80
2023-03-08T04:40:09.666Z,7.03
2023-03-08T04:45:18.346Z,6.85
2023-03-08T04:50:19.974Z,6.70
2023-03-08T04:55:21.594Z,22.40
2023-03-08T05:00:23.269Z,7.10
2023-03-08T05:05:25.777Z,6.30
2023-03-08T05:10:28.470Z,6.68
2023-03-08T05:15:30.347Z,6.78
2023-03-08T05:20:31.906Z,7.07
2023-03-08T05:25:33.641Z,7.88
2023-03-08T05:30:36.199Z,9.13
2023-03-08T05:35:37.865Z,8.15
2023-03-08T05:40:40.794Z,8.40
2023-03-08T05:45:43.604Z,8.13
2023-03-08T05:50:45.112Z,7.97
2023-03-08T05:55:46.936Z,7.65
2023-03-08T06:00:48.484Z,8.07
2023-03-08T06:05:50.277Z,7.57
2023-03-08T06:10:52.049Z,7.57
2023-03-08T06:15:57.789Z,6.35
2023-03-08T06:21:14.700Z,6.03
2023-03-08T06:26:17.107Z,5.35
2023-03-08T06:31:20.669Z,5.30
2023-03-08T06:36:22.664Z,5.82
2023-03-08T06:41:25.105Z,4.75
2023-03-08T06:46:30.240Z,5.35
2023-03-08T06:51:31.863Z,4.75
2023-03-08T06:56:34.024Z,4.72
2023-03-08T07:01:35.647Z,4.53
2023-03-08T07:06:39.935Z,4.60
2023-03-08T07:11:41.391Z,4.15
2023-03-08T07:16:42.929Z,4.65
2023-03-08T07:21:44.489Z,5.20
2023-03-08T07:26:45.945Z,4.95
2023-03-08T07:31:47.364Z,5.53
2023-03-08T07:36:50.894Z,5.97
2023-03-08T07:41:52.363Z,6.43
2023-03-08T07:46:53.916Z,7.03
2023-03-08T07:51:55.903Z,7.28
2023-03-08T07:56:57.447Z,6.57
2023-03-08T08:01:59.169Z,7.45
2023-03-08T08:07:00.662Z,9.18
2023-03-08T08:12:02.140Z,8.02
2023-03-08T08:17:04.147Z,8.98
2023-03-08T08:22:07.602Z,8.97
2023-03-08T08:27:09.085Z,8.23
2023-03-08T08:32:10.527Z,8.00
2023-03-08T08:37:11.995Z,9.82
2023-03-08T08:42:13.471Z,9.57
2023-03-08T08:47:14.982Z,9.18
2023-03-08T08:52:16.485Z,8.05
2023-03-08T08:57:17.929Z,7.38
2023-03-08T09:02:19.472Z,7.57
2023-03-08T09:07:21.825Z,6.68
2023-03-08T09:12:23.416Z,6.70
2023-03-08T09:17:24.900Z,6.85
2023-03-08T09:22:26.471Z,6.93
2023-03-08T09:27:27.969Z,5.78
2023-03-08T09:32:29.494Z,5.35
2023-03-08T09:37:31.575Z,6.97
2023-03-08T09:42:34.032Z,6.75
2023-03-08T09:47:39.999Z,8.98
2023-03-08T09:53:04.380Z,9.30
2023-03-08T09:58:17.956Z,9.57
2023-03-08T10:03:19.366Z,9.73
2023-03-08T10:08:26.036Z,11.30
2023-03-08T10:13:39.736Z,10.50
2023-03-08T10:18:50.430Z,10.65
2023-03-08T10:24:07.102Z,12.05
2023-03-08T10:29:11.818Z,11.25
2023-03-08T10:34:19.559Z,9.98
2023-03-08T10:39:21.849Z,10.00
2023-03-08T10:44:44.201Z,9.77
2023-03-08T10:49:47.502Z,9.97
2023-03-08T10:55:00.822Z,9.82
2023-03-08T11:00:25.812Z,9.20
2023-03-08T11:05:28.838Z,9.90
2023-03-08T11:10:32.203Z,9.35
2023-03-08T11:15:37.922Z,9.55
2023-03-08T11:20:55.411Z,9.25
2023-03-08T11:26:16.490Z,8.23
2023-03-08T11:31:26.881Z,9.23
2023-03-08T11:37:05.505Z,9.48
2023-03-08T11:42:22.175Z,8.27
2023-03-08T11:47:48.160Z,9.57
2023-03-08T11:53:03.502Z,8.80
2023-03-08T11:58:14.479Z,9.57
2023-03-08T12:03:29.193Z,9.38
2023-03-08T12:08:45.327Z,9.75
2023-03-08T12:13:52.978Z,9.75
2023-03-08T12:19:06.734Z,9.40
2023-03-08T12:24:26.583Z,9.75
2023-03-08T12:30:04.585Z,9.25
2023-03-08T12:35:24.598Z,9.30
2023-03-08T12:40:44.020Z,10.27
2023-03-08T12:46:07.559Z,8.68
2023-03-08T12:51:12.100Z,10.63
2023-03-08T12:56:38.134Z,11.57
2023-03-08T13:02:01.165Z,10.10
2023-03-08T13:07:05.635Z,9.65
2023-03-08T13:12:16.260Z,9.63
2023-03-08T13:17:29.634Z,8.95
2023-03-08T13:22:41.538Z,9.95
2023-03-08T13:27:58.241Z,10.23
2023-03-08T13:33:00.540Z,9.18
2023-03-08T13:38:02.052Z,9.63
2023-03-08T13:43:05.525Z,10.05
2023-03-08T13:48:08.831Z,9.07
2023-03-08T13:53:16.979Z,9.52
2023-03-08T13:58:25.648Z,9.85
2023-03-08T14:03:29.846Z,9.30
2023-03-08T14:08:31.360Z,9.40
2023-03-08T14:13:35.853Z,8.30
2023-03-08T14:18:40.121Z,8.48
2023-03-08T14:23:46.016Z,8.00
2023-03-08T14:28:47.588Z,8.23
2023-03-08T14:34:23.343Z,8.38
2023-03-08T14:39:27.510Z,8.25
2023-03-08T14:44:29.487Z,7.97
2023-03-08T14:49:31.026Z,7.30
2023-03-08T14:54:37.386Z,7.60
2023-03-08T14:59:41.658Z,7.53
2023-03-08T15:04:44.595Z,7.63
2023-03-08T15:09:47.547Z,7.70
2023-03-08T15:19:50.409Z,8.13
2023-03-08T15:24:51.842Z,8.00
2023-03-08T15:29:53.271Z,7.35
2023-03-08T15:34:54.661Z,7.28
2023-03-08T15:39:56.094Z,7.28
2023-03-08T15:44:57.490Z,6.15
2023-03-08T15:49:59.342Z,5.03
2023-03-08T15:55:00.818Z,6.72
2023-03-08T16:00:05.008Z,6.05
2023-03-08T16:05:14.356Z,7.03
2023-03-08T16:10:16.472Z,5.82
2023-03-08T16:15:18.495Z,6.22
2023-03-08T16:20:21.478Z,6.18
2023-03-08T16:25:23.117Z,7.05
2023-03-08T16:30:24.726Z,7.07
2023-03-08T16:35:26.270Z,8.48
2023-03-08T16:40:31.069Z,7.43
2023-03-08T16:45:32.623Z,8.45
2023-03-08T16:50:34.086Z,8.35
2023-03-08T16:55:36.183Z,8.85
2023-03-08T17:00:37.968Z,12.27
2023-03-08T17:05:41.890Z,10.63
2023-03-08T17:10:45.051Z,9.48
2023-03-08T17:15:47.620Z,10.90
2023-03-08T17:20:49.403Z,9.77
2023-03-08T17:25:51.522Z,11.15
2023-03-08T17:30:53.015Z,11.10
2023-03-08T17:35:59.090Z,11.88
2023-03-08T17:41:04.968Z,16.25
2023-03-08T17:46:16.770Z,14.38
2023-03-08T17:51:21.011Z,13.43
2023-03-08T17:56:32.126Z,15.10
2023-03-08T18:01:33.771Z,21.33
2023-03-08T18:06:42.733Z,15.90
2023-03-08T18:11:44.288Z,17.45
2023-03-08T18:16:46.319Z,20.00
2023-03-08T18:21:53.937Z,19.50
2023-03-08T18:26:55.391Z,19.83
2023-03-08T18:31:56.932Z,19.67
2023-03-08T18:36:58.733Z,19.05
2023-03-08T18:42:01.187Z,19.67
2023-03-08T18:58:51.634Z,21.33
2023-03-08T19:04:06.881Z,19.13
2023-03-08T19:09:10.883Z,22.67
2023-03-08T19:14:12.860Z,17.55
2023-03-08T19:19:15.781Z,18.52
2023-03-08T19:24:20.740Z,19.23
2023-03-08T19:29:24.577Z,20.02
2023-03-08T19:34:38.300Z,17.15
2023-03-08T19:39:40.845Z,17.77
2023-03-08T19:44:47.409Z,15.60
2023-03-08T19:49:49.682Z,16.00
2023-03-08T19:54:51.234Z,15.37
2023-03-08T19:59:52.723Z,15.70
2023-03-08T20:04:54.190Z,15.00
2023-03-08T20:09:57.544Z,14.52
2023-03-08T20:15:02.158Z,14.40
2023-03-08T20:20:05.266Z,14.47
2023-03-08T20:25:07.469Z,13.57
2023-03-08T20:30:11.106Z,13.05
2023-03-08T20:35:13.950Z,12.23
2023-03-08T20:40:16.756Z,11.25
2023-03-08T20:45:18.304Z,9.32
2023-03-08T20:50:24.734Z,9.05
2023-03-08T20:55:26.166Z,8.63
2023-03-08T21:00:27.649Z,7.20
2023-03-08T21:05:35.372Z,7.07
2023-03-08T21:10:39.105Z,6.53
2023-03-08T21:15:40.665Z,6.88
2023-03-08T21:20:42.116Z,6.68
2023-03-08T21:25:43.527Z,6.53
2023-03-08T21:30:45.488Z,7.20
2023-03-08T21:35:46.975Z,6.90
2023-03-08T21:40:48.415Z,7.88
2023-03-08T21:45:50.052Z,7.63
2023-03-08T21:50:51.548Z,7.82
2023-03-08T21:55:53.406Z,6.30
2023-03-08T22:00:54.966Z,8.07
2023-03-08T22:05:57.463Z,6.38
2023-03-08T22:10:58.884Z,5.90
2023-03-08T22:16:00.424Z,6.00
2023-03-08T22:21:01.894Z,6.05
2023-03-08T22:26:07.758Z,6.03
2023-03-08T22:31:11.685Z,5.97
2023-03-08T22:36:15.061Z,5.18
2023-03-08T22:41:20.965Z,5.75
2023-03-08T22:46:25.104Z,4.90
2023-03-08T22:51:28.220Z,5.20
2023-03-08T23:01:32.866Z,5.03
2023-03-08T23:06:34.966Z,4.93
2023-03-08T23:11:37.409Z,5.03
2023-03-08T23:16:44.710Z,5.63
2023-03-08T23:21:47.154Z,6.93
2023-03-08T23:26:48.720Z,7.40
2023-03-08T23:31:50.182Z,8.07
2023-03-08T23:36:51.624Z,8.07
2023-03-08T23:41:53.022Z,7.30
2023-03-08T23:46:54.438Z,7.72
2023-03-08T23:51:55.993Z,9.73
2023-03-08T23:56:57.389Z,11.43
